Time;durP1;ratioP1;P1;durP2;ratioP2;P2;SDS_P1;SDS_P2;PMS_P1;PMS_P2;Temp;Humidity;BMP_temperature;BMP_pressure;BME280_temperature;BME280_humidity;BME280_pressure;Samples;Min_cycle;Max_cycle;Signal;HPM_P1;HPM_P2
2022/10/08 00:00:58;;;;;;;13.50;8.05;;;;;;;10.79;78.76;100857.70;1757196;81;21061;-76
2022/10/08 00:03:27;;;;;;;13.40;8.48;;;;;;;10.78;78.89;100854.72;1752756;80;20992;-76
2022/10/08 00:06:02;;;;;;;12.90;8.70;;;;;;;10.76;78.75;100858.84;1754540;80;21203;-76
2022/10/08 00:08:31;;;;;;;16.67;8.73;;;;;;;10.75;78.76;100853.16;1781872;79;20998;-76
2022/10/08 00:11:00;;;;;;;19.32;9.18;;;;;;;10.79;78.56;100854.55;1761509;80;21530;-76
2022/10/08 00:13:39;;;;;;;14.93;6.35;;;;;;;10.93;78.32;100852.43;1764630;80;21025;-75
2022/10/08 00:15:57;;;;;;;14.28;7.17;;;;;;;10.95;78.29;100850.47;1790333;80;21104;-76
2022/10/08 00:18:23;;;;;;;14.65;7.22;;;;;;;10.99;78.01;100845.20;1764064;80;21090;-75
2022/10/08 00:20:50;;;;;;;16.35;7.67;;;;;;;11.06;77.80;100843.66;1790469;80;21002;-78
2022/10/08 00:23:17;;;;;;;15.20;8.08;;;;;;;11.13;77.59;100845.27;1771161;80;21023;-76
2022/10/08 00:25:43;;;;;;;16.00;7.47;;;;;;;11.16;77.22;100840.97;1785719;80;21065;-76
2022/10/08 00:28:14;;;;;;;16.48;7.25;;;;;;;11.18;76.99;100833.21;1791682;80;21041;-73
2022/10/08 00:30:42;;;;;;;15.38;6.85;;;;;;;11.30;76.71;100840.52;1791075;80;21065;-76
2022/10/08 00:33:09;;;;;;;13.55;6.62;;;;;;;11.44;76.29;100833.87;1762291;80;21022;-75
2022/10/08 00:35:37;;;;;;;13.10;7.50;;;;;;;11.47;76.21;100832.73;1811836;79;21049;-76
2022/10/08 00:38:06;;;;;;;15.35;6.72;;;;;;;11.45;76.19;100828.88;1781137;80;21014;-75
2022/10/08 00:40:42;;;;;;;16.12;7.10;;;;;;;11.42;76.06;100825.20;1748748;81;21071;-76
2022/10/08 00:43:13;;;;;;;16.02;7.17;;;;;;;11.42;76.06;100822.53;1764022;80;21243;-75
2022/10/08 00:45:43;;;;;;;13.65;7.08;;;;;;;11.43;75.84;100820.70;1790468;79;21033;-77
2022/10/08 00:48:16;;;;;;;15.93;6.25;;;;;;;11.43;75.64;100813.55;1791383;79;21060;-77
2022/10/08 00:50:44;;;;;;;14.73;6.30;;;;;;;11.48;75.37;100813.13;1797244;79;21025;-75
2022/10/08 00:53:11;;;;;;;12.78;5.80;;;;;;;11.60;75.01;100809.27;1797234;79;21045;-75
2022/10/08 00:55:39;;;;;;;8.65;5.17;;;;;;;11.60;74.78;100807.94;1795690;79;21808;-78
2022/10/08 00:58:19;;;;;;;12.30;5.83;;;;;;;11.57;74.73;100798.91;1767817;79;21098;-76
2022/10/08 01:00:47;;;;;;;12.28;6.33;;;;;;;11.55;74.63;100799.08;1772619;79;20994;-76
2022/10/08 01:03:14;;;;;;;10.18;5.83;;;;;;;11.54;74.50;100800.05;1778453;80;20996;-77
2022/10/08 01:05:58;;;;;;;10.45;6.17;;;;;;;11.52;74.42;100800.70;1781024;80;21010;-74
2022/10/08 01:08:48;;;;;;;12.23;6.45;;;;;;;11.49;74.43;100799.69;1791643;78;21247;-74
2022/10/08 01:11:33;;;;;;;12.82;5.53;;;;;;;11.48;74.49;100793.17;1791392;80;21013;-74
2022/10/08 01:14:24;;;;;;;11.63;5.90;;;;;;;11.54;74.49;100794.73;1783053;78;21081;-75
2022/10/08 01:17:17;;;;;;;11.75;6.28;;;;;;;11.64;74.27;100797.84;1791405;78;21012;-75
2022/10/08 01:20:17;;;;;;;10.55;6.62;;;;;;;11.60;74.17;100795.46;1799781;78;20990;-74
2022/10/08 01:23:15;;;;;;;10.85;5.75;;;;;;;11.57;74.20;100800.23;1794297;80;21153;-77
2022/10/08 01:26:07;;;;;;;17.20;6.45;;;;;;;11.52;74.14;100795.38;1782825;80;21084;-76
2022/10/08 01:28:44;;;;;;;12.10;6.17;;;;;;;11.47;74.18;100790.15;1796143;80;21115;-73
2022/10/08 01:31:21;;;;;;;12.40;6.45;;;;;;;11.44;74.22;100797.95;1782188;78;20989;-74
2022/10/08 01:34:02;;;;;;;11.73;6.05;;;;;;;11.40;74.27;100789.92;1827890;78;21040;-75
2022/10/08 01:36:34;;;;;;;11.85;6.12;;;;;;;11.47;74.16;100793.64;1784147;78;21087;-76
2022/10/08 01:39:03;;;;;;;22.65;6.97;;;;;;;11.50;74.10;100791.20;1765813;80;20998;-76
2022/10/08 01:41:30;;;;;;;10.13;6.17;;;;;;;11.46;74.17;100790.66;1775007;78;21040;-76
2022/10/08 01:44:03;;;;;;;11.97;6.00;;;;;;;11.43;74.21;100788.27;1819176;78;21162;-76
2022/10/08 01:46:30;;;;;;;11.25;5.87;;;;;;;11.40;74.23;100789.92;1774598;78;21029;-75
2022/10/08 01:49:01;;;;;;;10.98;6.67;;;;;;;11.37;74.33;100792.86;1777635;78;21138;-74
2022/10/08 01:51:32;;;;;;;12.33;6.90;;;;;;;11.33;74.41;100789.66;1779303;80;21076;-75
2022/10/08 01:54:01;;;;;;;10.28;5.50;;;;;;;11.31;74.50;100790.80;1760147;81;20996;-74
2022/10/08 01:56:27;;;;;;;13.25;6.28;;;;;;;11.35;74.48;100797.00;1746813;80;21526;-76
2022/10/08 01:59:23;;;;;;;12.45;6.03;;;;;;;11.44;74.42;100796.62;1790693;80;21529;-76
2022/10/08 02:02:20;;;;;;;11.35;6.17;;;;;;;11.41;74.39;100792.91;1774872;79;21230;-78
2022/10/08 02:04:48;;;;;;;9.85;5.87;;;;;;;11.35;74.48;100794.83;1773621;79;21002;-74
2022/10/08 02:07:20;;;;;;;11.60;5.95;;;;;;;11.28;74.68;100789.75;1794139;79;21510;-75
2022/10/08 02:09:50;;;;;;;12.28;6.03;;;;;;;11.25;74.79;100794.05;1790291;79;20973;-76
2022/10/08 02:12:18;;;;;;;9.28;5.03;;;;;;;11.21;74.90;100791.67;1797570;79;21012;-75
2022/10/08 02:14:49;;;;;;;10.93;5.47;;;;;;;11.26;74.90;100790.39;1795971;79;20993;-77
2022/10/08 02:17:50;;;;;;;10.55;5.45;;;;;;;11.36;74.66;100791.20;1805286;79;21069;-78
2022/10/08 02:20:27;;;;;;;10.18;5.45;;;;;;;11.36;74.65;100793.36;1764103;79;21069;-77
2022/10/08 02:23:33;;;;;;;16.45;5.35;;;;;;;11.34;74.64;100787.36;1778225;79;20982;-77
2022/10/08 02:26:03;;;;;;;13.25;5.83;;;;;;;11.31;74.66;100784.14;1786158;79;21017;-75
2022/10/08 02:28:49;;;;;;;10.68;5.33;;;;;;;11.28;74.71;100789.28;1768326;81;21605;-78
2022/10/08 02:31:42;;;;;;;13.03;6.25;;;;;;;11.27;74.78;100782.77;1781084;79;20966;-75
2022/10/08 02:34:26;;;;;;;9.35;5.05;;;;;;;11.25;74.82;100784.74;1781153;80;21019;-76
2022/10/08 02:37:00;;;;;;;7.87;5.00;;;;;;;11.29;74.83;100782.95;1774494;78;20983;-75
2022/10/08 02:39:28;;;;;;;8.75;4.60;;;;;;;11.36;74.67;100785.88;1793927;79;21084;-76
2022/10/08 02:41:59;;;;;;;9.25;5.33;;;;;;;11.31;74.86;100781.48;1796930;79;21239;-76
2022/10/08 02:44:31;;;;;;;12.20;5.55;;;;;;;11.28;74.93;100784.43;1787350;79;21008;-76
2022/10/08 02:46:59;;;;;;;10.98;5.50;;;;;;;11.23;75.03;100777.41;1791350;79;21497;-75
2022/10/08 02:49:30;;;;;;;13.13;5.72;;;;;;;11.17;75.19;100782.31;1780324;79;20989;-75
2022/10/08 02:51:57;;;;;;;11.65;5.83;;;;;;;11.13;75.39;100777.45;1762067;79;21057;-77
2022/10/08 02:54:24;;;;;;;11.40;5.83;;;;;;;11.14;75.47;100787.91;1796361;79;21150;-75
2022/10/08 02:56:57;;;;;;;8.55;5.08;;;;;;;11.26;75.34;100789.06;1775497;79;21076;-76
2022/10/08 02:59:24;;;;;;;;;;;;;;;11.25;75.33;100794.05;1766557;79;21053;-77
2022/10/08 03:02:01;;;;;;;12.70;6.10;;;;;;;11.19;75.48;100786.16;1793395;79;20184;-76
2022/10/08 03:04:38;;;;;;;11.68;6.03;;;;;;;11.13;75.63;100790.24;1763775;80;21085;-76
2022/10/08 03:07:04;;;;;;;12.80;6.95;;;;;;;11.09;75.79;100790.19;1754549;81;21134;-77
2022/10/08 03:09:35;;;;;;;14.58;6.97;;;;;;;11.04;75.89;100788.45;1790418;78;21032;-75
2022/10/08 03:12:02;;;;;;;13.95;6.65;;;;;;;11.00;76.07;100785.73;1773998;80;21062;-74
2022/10/08 03:14:28;;;;;;;12.78;5.97;;;;;;;11.02;76.12;100787.26;1785163;80;21116;-76
2022/10/08 03:16:55;;;;;;;10.98;6.00;;;;;;;11.11;76.03;100782.08;1775228;80;21012;-76
2022/10/08 03:19:23;;;;;;;11.70;6.35;;;;;;;11.11;76.03;100783.41;1780961;79;21504;-77
2022/10/08 03:21:53;;;;;;;14.73;7.25;;;;;;;11.08;76.14;100786.34;1764501;79;21390;-76
2022/10/08 03:24:19;;;;;;;13.32;6.17;;;;;;;11.04;76.21;100782.30;1793781;79;21034;-76
2022/10/08 03:26:45;;;;;;;9.58;6.37;;;;;;;10.99;76.25;100786.23;1789164;80;21022;-76
2022/10/08 03:29:12;;;;;;;12.37;6.45;;;;;;;10.96;76.34;100786.52;1776136;80;21563;-76
2022/10/08 03:31:38;;;;;;;13.55;6.47;;;;;;;10.97;76.36;100778.91;1771595;80;21099;-76
2022/10/08 03:34:05;;;;;;;11.78;5.97;;;;;;;11.08;76.23;100781.03;1781446;80;21032;-75
2022/10/08 03:36:31;;;;;;;9.43;5.70;;;;;;;11.08;76.26;100785.84;1776955;80;21572;-75
2022/10/08 03:38:58;;;;;;;10.65;5.92;;;;;;;11.04;76.29;100779.64;1780727;80;21064;-74
2022/10/08 03:41:24;;;;;;;12.13;5.95;;;;;;;10.98;76.36;100787.71;1776271;80;21050;-75
2022/10/08 03:43:53;;;;;;;14.60;6.78;;;;;;;10.91;76.49;100778.12;1779791;80;21780;-78
2022/10/08 03:46:20;;;;;;;12.80;6.65;;;;;;;10.90;76.62;100785.77;1783865;79;21073;-80
2022/10/08 03:48:48;;;;;;;14.15;6.28;;;;;;;10.89;76.71;100784.58;1772183;80;20989;-78
2022/10/08 03:51:15;;;;;;;17.48;6.95;;;;;;;10.91;76.69;100777.30;1773287;80;21086;-76
2022/10/08 03:53:42;;;;;;;13.25;6.42;;;;;;;11.02;76.58;100783.77;1774659;80;21011;-76
2022/10/08 03:56:13;;;;;;;12.68;6.25;;;;;;;11.00;76.62;100785.23;1773612;80;21285;-82
2022/10/08 03:58:40;;;;;;;13.98;6.80;;;;;;;10.95;76.80;100782.20;1767621;80;21056;-81
2022/10/08 04:01:11;;;;;;;14.25;6.28;;;;;;;10.92;76.85;100782.48;1766211;80;21517;-81
2022/10/08 04:03:38;;;;;;;12.25;6.40;;;;;;;10.90;76.92;100783.61;1791303;79;21081;-82
2022/10/08 04:06:05;;;;;;;13.62;5.37;;;;;;;10.86;77.05;100786.22;1792105;79;21061;-83
2022/10/08 04:08:34;;;;;;;12.35;5.22;;;;;;;10.87;77.09;100779.91;1802726;78;21142;-82
2022/10/08 04:11:05;;;;;;;10.23;5.75;;;;;;;10.96;76.97;100781.20;1818763;78;21508;-83
2022/10/08 04:13:33;;;;;;;14.05;6.42;;;;;;;10.96;77.03;100780.38;1811671;78;21088;-83
2022/10/08 04:16:03;;;;;;;11.60;5.42;;;;;;;10.92;77.14;100778.48;1768389;80;21008;-83
2022/10/08 04:18:30;;;;;;;12.63;6.00;;;;;;;10.90;77.21;100776.47;1785336;76;21037;-81
2022/10/08 04:21:02;;;;;;;11.97;6.28;;;;;;;10.87;77.28;100774.09;1812940;75;21573;-83
2022/10/08 04:23:31;;;;;;;13.40;5.85;;;;;;;10.85;77.33;100776.05;1822993;78;21566;-80
2022/10/08 04:25:57;;;;;;;15.30;6.10;;;;;;;10.90;77.32;100784.45;1819469;78;21013;-77
2022/10/08 04:28:24;;;;;;;12.18;6.70;;;;;;;11.02;77.19;100775.30;1816034;78;21014;-79
2022/10/08 04:30:56;;;;;;;13.30;6.10;;;;;;;11.02;77.20;100789.09;1818488;78;21018;-82
2022/10/08 04:33:23;;;;;;;10.93;6.58;;;;;;;10.99;77.28;100788.03;1826706;78;21249;-80
2022/10/08 04:35:50;;;;;;;13.95;6.20;;;;;;;10.95;77.34;100781.34;1820577;78;21052;-78
2022/10/08 04:38:16;;;;;;;12.13;6.95;;;;;;;10.87;77.36;100775.42;1822312;78;20971;-77
2022/10/08 04:40:43;;;;;;;14.15;6.30;;;;;;;10.91;77.42;100781.28;1825500;78;21021;-81
2022/10/08 04:43:09;;;;;;;14.98;6.85;;;;;;;10.97;77.26;100785.55;1825667;78;21006;-84
2022/10/08 04:45:45;;;;;;;13.85;6.37;;;;;;;11.12;77.00;100774.42;1802071;78;21168;-83
2022/10/08 04:48:12;;;;;;;11.20;5.70;;;;;;;11.14;76.86;100783.09;1824401;78;21032;-79
2022/10/08 04:50:39;;;;;;;11.40;5.70;;;;;;;11.12;76.87;100781.91;1818698;78;21492;-79
2022/10/08 04:53:06;;;;;;;15.78;6.50;;;;;;;11.13;76.79;100779.61;1822678;78;20997;-78
2022/10/08 04:55:32;;;;;;;10.75;5.80;;;;;;;11.14;76.72;100781.77;1815950;77;21072;-78
2022/10/08 04:57:59;;;;;;;12.73;5.53;;;;;;;11.15;76.68;100789.60;1816445;78;21586;-78
2022/10/08 05:00:25;;;;;;;12.47;4.85;;;;;;;11.24;76.46;100788.38;1785698;80;21008;-76
2022/10/08 05:02:52;;;;;;;11.05;5.40;;;;;;;11.37;76.19;100786.21;1786155;80;21048;-76
2022/10/08 05:05:19;;;;;;;13.88;6.65;;;;;;;11.37;76.03;100788.38;1784476;80;20994;-76
2022/10/08 05:07:45;;;;;;;11.75;6.70;;;;;;;11.36;75.98;100785.88;1789223;80;21533;-76
2022/10/08 05:10:12;;;;;;;10.78;6.28;;;;;;;11.35;75.93;100784.20;1789495;78;21849;-75
2022/10/08 05:12:38;;;;;;;10.38;6.70;;;;;;;11.35;75.93;100790.84;1806376;78;20946;-75
2022/10/08 05:15:08;;;;;;;15.83;6.87;;;;;;;11.36;75.94;100789.37;1759417;80;20991;-76
2022/10/08 05:17:36;;;;;;;13.40;6.83;;;;;;;11.39;75.87;100787.73;1796046;78;21010;-76
2022/10/08 05:20:06;;;;;;;9.30;5.50;;;;;;;11.49;75.73;100794.36;1821780;78;21447;-76
2022/10/08 05:22:32;;;;;;;10.63;6.00;;;;;;;11.65;75.40;100787.52;1821664;77;21488;-75
2022/10/08 05:24:59;;;;;;;14.93;5.80;;;;;;;11.67;75.30;100789.06;1821679;78;21053;-76
2022/10/08 05:27:25;;;;;;;12.50;6.15;;;;;;;11.72;75.21;100786.77;1791977;78;21002;-76
2022/10/08 05:29:51;;;;;;;13.00;6.03;;;;;;;11.78;74.82;100786.66;1815799;78;21006;-75
2022/10/08 05:32:18;;;;;;;10.35;5.87;;;;;;;11.80;74.61;100780.70;1817856;79;21022;-74
2022/10/08 05:34:44;;;;;;;11.80;5.97;;;;;;;11.83;74.48;100777.74;1817932;79;21095;-76
2022/10/08 05:37:11;;;;;;;18.35;6.30;;;;;;;11.87;74.37;100779.11;1816389;78;21504;-76
2022/10/08 05:39:37;;;;;;;8.70;4.90;;;;;;;11.92;74.17;100779.54;1816319;79;21120;-76
2022/10/08 05:42:04;;;;;;;11.48;5.92;;;;;;;12.04;73.83;100774.82;1819925;78;21025;-76
2022/10/08 05:44:30;;;;;;;15.28;5.97;;;;;;;12.21;73.50;100777.14;1821583;78;21072;-75
2022/10/08 05:46:57;;;;;;;11.22;5.50;;;;;;;12.29;73.43;100780.38;1759382;80;21099;-75
2022/10/08 05:49:24;;;;;;;12.25;6.20;;;;;;;12.37;73.23;100775.93;1804034;78;21023;-76
2022/10/08 05:51:50;;;;;;;10.50;5.65;;;;;;;12.47;72.77;100783.00;1821059;78;21009;-76
2022/10/08 05:54:17;;;;;;;12.10;6.42;;;;;;;12.49;72.29;100778.35;1789157;80;21228;-76
2022/10/08 05:56:45;;;;;;;9.85;5.42;;;;;;;12.51;72.17;100775.03;1808013;78;21060;-76
2022/10/08 05:59:20;;;;;;;12.45;6.35;;;;;;;12.54;71.73;100777.41;1813184;79;21907;-76
2022/10/08 06:01:47;;;;;;;12.37;5.90;;;;;;;12.53;71.62;100773.88;1809100;79;21491;-77
2022/10/08 06:04:13;;;;;;;10.75;6.72;;;;;;;12.52;71.79;100768.73;1824349;78;21084;-77
2022/10/08 06:06:47;;;;;;;15.53;6.35;;;;;;;12.65;71.85;100774.48;1818791;78;21022;-77
2022/10/08 06:09:15;;;;;;;;;;;;;;;12.78;71.26;100767.38;1821493;78;21046;-77
2022/10/08 06:11:43;;;;;;;10.78;6.12;;;;;;;12.78;71.29;100772.72;1820427;78;20262;-77
2022/10/08 06:14:12;;;;;;;10.18;5.83;;;;;;;12.82;71.51;100770.58;1795803;80;21068;-75
2022/10/08 06:18:04;;;;;;;11.08;6.58;;;;;;;12.97;71.24;100768.49;1873539;75;28619;-76
2022/10/08 06:20:31;;;;;;;13.25;7.30;;;;;;;13.05;71.12;100766.36;1827414;77;20999;-74
2022/10/08 06:22:58;;;;;;;9.58;6.17;;;;;;;13.14;70.78;100760.58;1791245;78;21757;-75
2022/10/08 06:25:24;;;;;;;10.40;5.72;;;;;;;13.17;70.35;100750.91;1843942;76;20945;-75
2022/10/08 06:27:52;;;;;;;12.03;6.08;;;;;;;13.17;70.36;100754.91;1840136;76;20996;-75
2022/10/08 06:30:18;;;;;;;13.20;5.92;;;;;;;13.18;70.11;100753.42;1843908;76;21513;-75
2022/10/08 06:32:45;;;;;;;12.37;5.90;;;;;;;13.21;69.98;100753.59;1837702;76;21552;-75
2022/10/08 06:35:13;;;;;;;10.03;6.03;;;;;;;13.22;69.83;100756.61;1833361;77;21585;-76
2022/10/08 06:37:42;;;;;;;15.40;6.95;;;;;;;13.24;70.00;100756.45;1822438;77;21009;-75
2022/10/08 06:40:09;;;;;;;11.40;6.10;;;;;;;13.32;70.04;100750.66;1833848;77;21490;-74
2022/10/08 06:42:35;;;;;;;9.88;5.42;;;;;;;13.42;70.09;100755.87;1835398;77;21020;-75
2022/10/08 06:45:02;;;;;;;11.68;5.70;;;;;;;13.53;69.56;100752.91;1828194;77;21096;-74
2022/10/08 06:47:28;;;;;;;10.85;5.42;;;;;;;13.62;69.37;100751.11;1807240;76;21129;-76
2022/10/08 06:49:55;;;;;;;11.83;5.37;;;;;;;13.71;68.90;100755.95;1838192;76;20980;-74
2022/10/08 06:52:21;;;;;;;10.00;5.67;;;;;;;13.76;68.24;100749.13;1830424;76;21011;-75
2022/10/08 06:54:48;;;;;;;11.05;5.55;;;;;;;13.79;68.32;100753.80;1833554;76;21060;-73
2022/10/08 06:57:14;;;;;;;13.43;5.30;;;;;;;13.83;68.47;100757.80;1844816;77;21552;-76
2022/10/08 06:59:41;;;;;;;11.95;5.03;;;;;;;13.91;68.42;100756.50;1810197;77;21687;-76
2022/10/08 07:02:10;;;;;;;7.55;4.42;;;;;;;14.01;68.31;100747.00;1811522;78;21093;-77
2022/10/08 07:04:36;;;;;;;9.98;5.20;;;;;;;14.10;67.86;100748.17;1825944;77;21055;-76
2022/10/08 07:07:03;;;;;;;12.93;4.25;;;;;;;14.19;67.60;100746.83;1830844;77;21005;-76
2022/10/08 07:09:30;;;;;;;8.63;4.65;;;;;;;14.24;67.31;100737.31;1832004;77;21153;-75
2022/10/08 07:11:56;;;;;;;8.33;4.30;;;;;;;14.35;67.32;100746.80;1808654;77;21109;-74
2022/10/08 07:14:23;;;;;;;9.13;4.03;;;;;;;14.46;66.85;100745.13;1815342;76;21009;-76
2022/10/08 07:16:50;;;;;;;12.18;4.20;;;;;;;14.56;66.29;100738.26;1798818;77;21090;-76
2022/10/08 07:19:16;;;;;;;11.90;3.92;;;;;;;14.64;65.21;100736.97;1788259;77;21054;-76
2022/10/08 07:21:43;;;;;;;6.30;4.25;;;;;;;14.72;65.30;100736.11;1810227;78;21519;-75
2022/10/08 07:24:09;;;;;;;7.60;3.00;;;;;;;14.81;64.50;100744.42;1825041;78;21066;-74
2022/10/08 07:26:36;;;;;;;8.73;2.98;;;;;;;14.87;64.10;100733.55;1827588;78;21084;-77
2022/10/08 07:29:13;;;;;;;6.85;3.52;;;;;;;14.89;62.95;100729.70;1840317;76;20977;-76
2022/10/08 07:31:41;;;;;;;8.93;2.67;;;;;;;14.92;62.83;100719.98;1840262;76;21020;-76
2022/10/08 07:34:10;;;;;;;9.90;3.35;;;;;;;14.98;62.48;100722.47;1841476;76;21052;-74
2022/10/08 07:36:37;;;;;;;11.15;2.80;;;;;;;15.04;62.46;100727.12;1851964;77;21852;-75
2022/10/08 07:39:15;;;;;;;6.80;3.08;;;;;;;15.09;61.97;100719.42;1811321;77;20997;-77
2022/10/08 07:41:42;;;;;;;6.67;3.00;;;;;;;15.14;61.96;100718.41;1801907;78;21088;-76
2022/10/08 07:44:11;;;;;;;5.78;3.30;;;;;;;15.24;62.15;100715.52;1812485;77;21509;-76
2022/10/08 07:46:47;;;;;;;7.65;3.58;;;;;;;15.36;61.70;100711.11;1763239;79;21021;-77
2022/10/08 07:49:15;;;;;;;9.65;3.90;;;;;;;15.46;61.54;100709.86;1760929;79;21182;-76
2022/10/08 07:51:42;;;;;;;8.73;3.45;;;;;;;15.60;61.34;100706.93;1787395;79;21089;-78
2022/10/08 07:54:13;;;;;;;4.85;2.90;;;;;;;15.74;61.40;100710.71;1781631;79;21079;-74
2022/10/08 07:56:39;;;;;;;7.40;2.90;;;;;;;15.89;60.08;100704.91;1753601;80;21100;-75
2022/10/08 07:59:08;;;;;;;6.65;3.50;;;;;;;16.01;59.14;100708.51;1789069;79;21039;-76
2022/10/08 08:01:36;;;;;;;10.48;3.37;;;;;;;16.05;58.85;100700.42;1783930;78;21018;-75
2022/10/08 08:04:06;;;;;;;5.35;2.67;;;;;;;16.06;59.06;100702.94;1799103;79;21044;-76
2022/10/08 08:06:35;;;;;;;8.10;2.92;;;;;;;16.09;58.80;100686.50;1764244;79;21281;-76
2022/10/08 08:09:03;;;;;;;5.80;2.72;;;;;;;16.17;58.46;100690.96;1826400;78;21121;-77
2022/10/08 08:11:29;;;;;;;6.83;2.75;;;;;;;16.27;58.03;100689.36;1811049;78;20999;-77
2022/10/08 08:13:57;;;;;;;6.80;2.67;;;;;;;16.38;57.71;100685.38;1795496;78;21088;-77
2022/10/08 08:16:25;;;;;;;5.37;2.92;;;;;;;16.44;56.90;100683.33;1795426;79;21030;-78
2022/10/08 08:18:55;;;;;;;5.97;3.05;;;;;;;16.47;57.33;100683.77;1786435;78;21070;-77
2022/10/08 08:21:25;;;;;;;6.47;2.90;;;;;;;16.53;57.13;100684.89;1826482;78;21013;-77
2022/10/08 08:23:54;;;;;;;6.72;2.77;;;;;;;16.61;56.88;100677.27;1805151;78;21156;-76
2022/10/08 08:26:27;;;;;;;8.88;2.77;;;;;;;16.70;56.70;100677.50;1757532;79;21955;-78
2022/10/08 08:28:57;;;;;;;7.12;2.95;;;;;;;16.83;56.32;100672.86;1780423;78;21004;-76
2022/10/08 08:31:34;;;;;;;7.85;3.45;;;;;;;16.96;56.28;100682.43;1792725;80;20989;-75
2022/10/08 08:34:07;;;;;;;7.65;3.42;;;;;;;17.09;55.68;100687.97;1792447;79;21089;-76
2022/10/08 08:36:36;;;;;;;5.55;3.45;;;;;;;17.24;55.36;100674.49;1801024;78;21077;-78
2022/10/08 08:39:04;;;;;;;6.90;2.72;;;;;;;17.40;54.61;100678.83;1791997;78;21091;-77
2022/10/08 08:41:54;;;;;;;7.67;3.40;;;;;;;17.52;54.42;100675.61;1790982;78;21054;-75
2022/10/08 08:44:39;;;;;;;6.28;2.72;;;;;;;17.65;54.28;100674.41;1804621;78;21092;-76
2022/10/08 08:47:23;;;;;;;7.80;3.22;;;;;;;17.86;53.82;100669.05;1787166;80;21070;-75
2022/10/08 08:50:01;;;;;;;5.35;2.58;;;;;;;18.08;53.62;100667.19;1780010;79;21090;-77
2022/10/08 08:52:32;;;;;;;6.67;3.02;;;;;;;18.38;52.59;100659.42;1805678;78;22349;-77
2022/10/08 08:55:00;;;;;;;6.35;3.00;;;;;;;18.75;52.32;100662.73;1802336;78;20966;-75
2022/10/08 08:57:54;;;;;;;6.08;2.95;;;;;;;19.25;51.39;100655.30;1762078;81;21030;-76
2022/10/08 09:00:23;;;;;;;4.30;3.00;;;;;;;19.70;51.07;100652.92;1780933;79;21630;-78
2022/10/08 09:03:05;;;;;;;6.85;2.65;;;;;;;20.34;48.93;100658.22;1761459;80;21082;-77
2022/10/08 09:05:35;;;;;;;6.12;3.42;;;;;;;20.71;47.38;100645.07;1782784;80;21167;-78
2022/10/08 09:08:21;;;;;;;4.97;2.42;;;;;;;21.09;46.95;100634.81;1773263;79;20981;-78
2022/10/08 09:10:55;;;;;;;5.00;2.92;;;;;;;21.54;45.64;100632.63;1781434;79;21010;-76
2022/10/08 09:13:31;;;;;;;7.12;2.85;;;;;;;22.01;44.51;100634.42;1776384;79;20988;-76
2022/10/08 09:15:57;;;;;;;7.75;4.45;;;;;;;22.53;44.31;100628.20;1770319;80;21106;-75
2022/10/08 09:18:24;;;;;;;6.00;3.25;;;;;;;23.11;42.60;100628.25;1769556;81;21214;-77
2022/10/08 09:20:50;;;;;;;5.03;2.77;;;;;;;23.57;42.17;100625.11;1776324;79;21041;-77
2022/10/08 09:23:22;;;;;;;6.30;2.70;;;;;;;23.95;42.26;100612.48;1789776;79;20992;-77
2022/10/08 09:26:02;;;;;;;6.37;3.08;;;;;;;24.56;41.88;100608.16;1762221;79;21584;-77
2022/10/08 09:28:39;;;;;;;7.83;2.90;;;;;;;25.18;40.53;100591.97;1784004;79;21035;-77
2022/10/08 09:31:29;;;;;;;5.47;2.77;;;;;;;25.24;38.99;100594.28;1789814;79;21176;-77
2022/10/08 09:34:17;;;;;;;5.28;3.37;;;;;;;25.05;39.89;100596.34;1785403;79;21209;-77
2022/10/08 09:36:53;;;;;;;4.87;2.90;;;;;;;25.28;39.17;100592.20;1762092;79;21080;-77
2022/10/08 09:39:31;;;;;;;6.20;3.40;;;;;;;25.73;38.11;100600.53;1793167;79;21051;-78
2022/10/08 09:42:12;;;;;;;5.33;3.62;;;;;;;26.04;38.21;100594.52;1775187;79;21075;-77
2022/10/08 09:44:49;;;;;;;6.17;3.17;;;;;;;26.58;38.17;100584.86;1781041;78;21909;-76
2022/10/08 09:47:22;;;;;;;5.97;3.22;;;;;;;27.31;37.25;100579.97;1781795;79;21104;-77
2022/10/08 09:50:17;;;;;;;4.28;3.50;;;;;;;27.71;36.49;100581.94;1779639;79;21089;-77
2022/10/08 09:52:46;;;;;;;6.08;3.22;;;;;;;27.90;35.89;100568.73;1776162;79;21075;-77
2022/10/08 09:55:20;;;;;;;7.87;3.37;;;;;;;27.96;35.91;100568.48;1780077;79;21243;-77
2022/10/08 09:57:53;;;;;;;9.58;3.12;;;;;;;28.42;35.87;100565.98;1756432;80;21895;-75
2022/10/08 10:00:34;;;;;;;5.40;3.30;;;;;;;29.18;33.36;100569.25;1739204;81;21071;-78
2022/10/08 10:03:02;;;;;;;4.47;3.33;;;;;;;29.48;33.77;100562.16;1748513;81;21028;-79
2022/10/08 10:05:31;;;;;;;6.08;3.12;;;;;;;30.04;33.68;100559.34;1756097;81;21033;-77
2022/10/08 10:07:57;;;;;;;4.55;3.55;;;;;;;30.79;32.80;100562.63;1784176;76;21017;-76
2022/10/08 10:10:32;;;;;;;6.47;3.65;;;;;;;31.40;31.91;100555.07;1777363;78;21231;-77
2022/10/08 10:13:15;;;;;;;6.03;3.55;;;;;;;31.79;32.03;100547.31;1772522;79;20994;-76
2022/10/08 10:15:50;;;;;;;4.85;3.02;;;;;;;32.36;30.90;100541.46;1772080;79;20974;-78
2022/10/08 10:18:19;;;;;;;5.10;3.05;;;;;;;32.71;30.95;100538.80;1764215;79;21022;-75
2022/10/08 10:20:57;;;;;;;5.45;3.40;;;;;;;33.24;29.48;100535.53;1755919;78;20939;-76
2022/10/08 10:23:34;;;;;;;5.28;3.17;;;;;;;33.24;29.44;100532.78;1744435;79;21112;-77
2022/10/08 10:26:09;;;;;;;4.10;3.02;;;;;;;33.18;29.34;100527.92;1768530;80;21508;-76
2022/10/08 10:28:55;;;;;;;6.35;3.30;;;;;;;33.12;28.86;100517.31;1769464;80;21036;-78
2022/10/08 10:31:32;;;;;;;4.17;3.00;;;;;;;32.86;28.81;100508.88;1768937;80;21063;-78
2022/10/08 10:34:28;;;;;;;4.80;2.75;;;;;;;32.56;29.39;100500.52;1772058;79;21089;-77
2022/10/08 10:37:00;;;;;;;5.78;3.80;;;;;;;32.52;29.17;100497.50;1767493;79;21103;-76
2022/10/08 10:39:47;;;;;;;8.25;3.62;;;;;;;32.30;30.06;100490.41;1773004;80;21060;-76
2022/10/08 10:42:32;;;;;;;5.22;4.22;;;;;;;32.76;30.65;100488.41;1776269;79;21007;-77
2022/10/08 10:45:18;;;;;;;5.92;4.50;;;;;;;33.55;30.22;100479.34;1761115;79;21518;-76
2022/10/08 10:47:47;;;;;;;7.33;4.00;;;;;;;34.13;29.78;100477.94;1749793;80;21040;-76
2022/10/08 10:50:14;;;;;;;6.12;4.17;;;;;;;34.70;28.91;100473.98;1742628;81;21212;-77
2022/10/08 10:52:58;;;;;;;4.78;3.90;;;;;;;35.16;28.56;100463.18;1780234;79;21041;-78
2022/10/08 10:55:39;;;;;;;8.43;4.35;;;;;;;35.32;28.46;100469.95;1765432;79;21025;-77
2022/10/08 10:58:48;;;;;;;6.10;4.10;;;;;;;35.76;28.13;100468.79;1756887;80;21680;-78
2022/10/08 11:01:29;;;;;;;7.87;4.35;;;;;;;36.04;27.90;100459.66;1772500;81;21020;-78
2022/10/08 11:04:40;;;;;;;8.85;3.90;;;;;;;36.51;27.47;100454.37;1763678;80;21259;-80
2022/10/08 11:07:44;;;;;;;8.48;4.70;;;;;;;36.79;27.41;100447.13;1778225;79;21463;-78
2022/10/08 11:10:44;;;;;;;7.53;4.53;;;;;;;36.61;27.26;100454.03;1750253;81;21105;-77
2022/10/08 11:13:33;;;;;;;6.97;4.65;;;;;;;36.25;27.33;100443.86;1755381;81;21017;-78
2022/10/08 11:16:37;;;;;;;6.87;4.30;;;;;;;36.00;27.56;100440.13;1766947;79;21632;-77
2022/10/08 11:19:04;;;;;;;6.10;4.00;;;;;;;36.30;27.50;100432.08;1790805;79;21238;-77
2022/10/08 11:21:58;;;;;;;5.67;4.42;;;;;;;36.65;27.25;100422.41;1791613;80;21009;-77
2022/10/08 11:24:55;;;;;;;4.20;3.80;;;;;;;36.92;26.94;100425.37;1774339;78;21287;-78
2022/10/08 11:27:29;;;;;;;6.45;4.20;;;;;;;36.80;26.64;100412.78;1763933;80;21500;-76
2022/10/08 11:30:12;;;;;;;5.08;4.10;;;;;;;36.61;26.88;100415.88;1758755;80;21036;-78
2022/10/08 11:32:41;;;;;;;5.60;4.03;;;;;;;36.37;26.82;100406.13;1763633;80;21642;-74
2022/10/08 11:35:19;;;;;;;5.35;4.47;;;;;;;36.03;26.88;100406.89;1798889;78;21139;-78
2022/10/08 11:38:00;;;;;;;5.35;4.00;;;;;;;35.70;27.04;100401.80;1810217;78;21529;-77
2022/10/08 11:40:40;;;;;;;8.10;4.30;;;;;;;35.29;27.34;100400.72;1802388;78;21053;-78
2022/10/08 11:43:24;;;;;;;6.33;3.70;;;;;;;35.29;27.46;100391.86;1794283;78;20919;-77
2022/10/08 11:46:30;;;;;;;6.17;4.03;;;;;;;35.42;27.04;100398.42;1817730;78;21121;-77
2022/10/08 11:49:21;;;;;;;5.10;3.80;;;;;;;35.42;26.95;100392.89;1745877;80;21092;-78